createdAt,value
2023-02-18T00:00:23.462Z,26.50
2023-02-18T00:08:11.606Z,26.30
2023-02-18T00:10:49.308Z,26.40
2023-02-18T00:13:26.924Z,26.50
2023-02-18T00:16:08.086Z,26.60
2023-02-18T06:22:46.960Z,25.70
2023-02-18T06:25:22.831Z,25.90
2023-02-18T06:27:58.484Z,25.80
2023-02-18T06:30:36.400Z,25.80
2023-02-18T06:33:12.457Z,25.80
2023-02-18T07:14:48.721Z,26.00
2023-02-18T09:40:30.729Z,24.50
2023-02-18T09:43:06.996Z,24.50
2023-02-18T09:45:42.812Z,24.40
2023-02-18T09:48:19.133Z,24.20
2023-02-18T09:50:59.858Z,24.20
2023-02-18T09:53:37.437Z,24.10
2023-02-18T09:56:16.500Z,24.20
2023-02-18T09:58:54.232Z,24.20
2023-02-18T10:01:34.943Z,24.30
2023-02-18T10:04:17.376Z,24.50
2023-02-18T10:06:53.691Z,24.10
2023-02-18T10:09:36.307Z,24.00
2023-02-18T10:12:19.635Z,24.00
2023-02-18T10:14:56.258Z,23.90
2023-02-18T10:17:35.050Z,24.00
2023-02-18T10:20:12.305Z,23.90
2023-02-18T10:22:48.288Z,23.80
2023-02-18T10:25:27.999Z,24.10
2023-02-18T10:28:05.243Z,24.00
2023-02-18T10:30:46.298Z,24.10
2023-02-18T10:52:10.329Z,24.30
2023-02-18T11:05:57.126Z,24.20
2023-02-18T11:08:40.439Z,24.30
2023-02-18T11:11:21.187Z,24.30
2023-02-18T11:14:03.429Z,24.30
2023-02-18T11:16:46.100Z,24.20
2023-02-18T11:19:42.434Z,24.30
2023-02-18T11:22:23.212Z,24.40
2023-02-18T11:30:27.351Z,24.30
2023-02-18T11:35:41.507Z,24.30
2023-02-18T11:38:27.973Z,24.30
2023-02-18T11:41:05.949Z,24.30
2023-02-18T11:43:45.650Z,24.40
2023-02-18T11:46:25.258Z,24.40
2023-02-18T11:49:01.186Z,24.40
2023-02-18T11:57:05.634Z,24.40
2023-02-18T14:38:46.112Z,23.70
2023-02-18T14:41:42.388Z,23.70
2023-02-18T14:44:40.904Z,23.60
2023-02-18T14:58:05.008Z,23.60
2023-02-18T15:00:46.572Z,23.60
2023-02-18T15:03:27.023Z,23.50
2023-02-18T15:06:02.408Z,23.40
2023-02-18T15:08:43.279Z,23.40
2023-02-18T15:11:20.251Z,23.50
2023-02-18T15:16:36.389Z,23.40
2023-02-18T15:19:20.641Z,23.50
2023-02-18T16:31:26.728Z,23.50
2023-02-18T16:34:02.691Z,23.50
2023-02-18T16:36:39.010Z,23.50
2023-02-18T16:39:16.454Z,23.50
2023-02-18T16:41:52.404Z,23.50
2023-02-18T16:44:31.837Z,23.50
2023-02-18T16:47:07.545Z,23.50
2023-02-18T16:49:52.235Z,23.50
2023-02-18T16:52:27.822Z,23.50
2023-02-18T16:55:06.998Z,23.50
2023-02-18T16:57:48.239Z,23.50
2023-02-18T17:00:24.864Z,23.40
2023-02-18T17:03:02.056Z,23.40
2023-02-18T17:05:42.067Z,23.50
2023-02-18T17:08:26.758Z,23.60
2023-02-18T17:11:04.662Z,23.50
2023-02-18T17:13:43.376Z,23.50
2023-02-18T17:16:21.712Z,23.50
2023-02-18T17:18:57.846Z,23.50
2023-02-18T17:21:33.207Z,23.60
2023-02-18T17:24:09.210Z,23.50
2023-02-18T17:26:47.720Z,23.50
2023-02-18T17:29:23.231Z,23.50
2023-02-18T17:32:01.181Z,23.40
2023-02-18T17:39:54.391Z,23.30
2023-02-18T17:42:33.424Z,23.30
2023-02-18T17:45:17.454Z,23.30
2023-02-18T17:47:54.110Z,23.30
2023-02-18T17:50:30.547Z,23.30
2023-02-18T17:53:06.487Z,23.30
2023-02-18T17:55:42.346Z,23.00
2023-02-18T17:58:21.373Z,23.20
2023-02-18T18:00:59.100Z,23.20
2023-02-18T18:03:34.618Z,23.30
2023-02-18T18:06:18.809Z,22.80
2023-02-18T18:08:55.405Z,23.30
2023-02-18T18:11:30.910Z,23.20
2023-02-18T18:14:10.979Z,23.20
2023-02-18T18:34:54.808Z,23.20
2023-02-18T18:37:30.314Z,23.20
2023-02-18T18:40:06.263Z,23.20
2023-02-18T19:21:50.982Z,23.20
2023-02-18T19:24:26.770Z,23.10
2023-02-18T19:27:02.136Z,23.10
2023-02-18T19:29:37.322Z,23.20
2023-02-18T19:32:15.770Z,23.10
2023-02-18T19:34:51.298Z,23.10
2023-02-18T19:37:26.330Z,23.10
2023-02-18T19:40:01.915Z,23.10
2023-02-18T19:42:38.116Z,23.10
2023-02-18T19:45:13.942Z,23.10
2023-02-18T19:47:56.973Z,23.10
2023-02-18T19:50:34.425Z,23.10
2023-02-18T19:58:22.982Z,23.10
2023-02-18T20:00:58.246Z,23.10
2023-02-18T21:11:06.836Z,24.40
2023-02-18T21:24:13.712Z,24.70
2023-02-18T21:26:49.606Z,24.80
2023-02-18T21:39:56.380Z,24.90
2023-02-18T22:55:11.696Z,25.40
